Terminal Aerodrome Forecast
Issued by NWS Blacksburg, VA

Current Version | Previous Version | Graphics & Text | Print | Product List | Glossary On
Versions: 1 2 3 4 5 6 7 8 9 10 11 12 13 14 15 16 17 18 19 20 21 22 23 24 25 26 27 28 29 30 31 32 33 34 35 36 37 38
000
FTUS41 KRNK 181720
TAFBLF
TAF
KBLF 181720Z 1818/1918 30005KT P6SM BKN100
     FM182300 28003KT P6SM SCT025
     FM190500 30005KT P6SM SCT003 OVC012
     FM190800 31006KT 6SM BR OVC003
     FM191500 31006KT P6SM OVC025=

USA.gov is the U.S. government's official web portal to all federal, state and local government web resources and services.